Terminal Aerodrome Forecast
Issued by NWS

Home | Current Version | Previous Version | Text Only | Print | Product List | Glossary Off
Versions: 1 2 3 4 5 6 7 8 9 10 11 12

000
FTUS43 KMPX 151120
TAFRNH
TAF
KRNH 151120Z 1512/1612 14008KT P6SM SKC
     FM151600 14014G22KT P6SM SCT250
     FM160100 13007KT P6SM BKN110=

USA.gov is the U.S. government's official web portal to all federal, state and local government web resources and services.